KAVP/AVP METAR and TAF weather

Enter ICAO airport designator
Station Type Date Time Source
KAVP METAR 2018/12/13 15:21 UTC NOAA

KAVP 131521Z 07004KT 7SM BKN022 BKN031 OVC085 02/M03 A3031 RMK AO2 T00221028


Station Type Date Time Source
KAVP Decoded METAR 2018/12/13 15:21 UTC NOAA

WILKES-BARRE/SCRANTON INTERNATIONAL , PA, United States (KAVP) 41-20N 75-44W 291M
Dec 13, 2018 - 10:21 AM EST / 2018.12.13 1521 UTC
Wind: from the ENE (070 degrees) at 5 MPH (4 KT):0
Visibility: 7 mile(s):0
Sky conditions: overcast
Temperature: 36.0 F (2.2 C)
Dew Point: 27.0 F (-2.8 C)
Relative Humidity: 69%
Pressure (altimeter): 30.31 in. Hg (1026 hPa)
ob: KAVP 131521Z 07004KT 7SM BKN022 BKN031 OVC085 02/M03 A3031 RMK AO2 T00221028
cycle: 15

Station Type Date Time Source
KAVP TAF 2018/12/13 12:42 UTC NOAA

TAF KAVP 131139Z 1312/1412 VRB03KT P6SM -SN SCT025 OVC040
TEMPO 1312/1315 5SM -SN OVC025
FM131500 VRB03KT P6SM OVC035
FM132200 VRB03KT P6SM OVC025
FM140400 VRB02KT P6SM OVC015


Example: see airport list